sensor_id;sensor_type;location;lat;lon;timestamp;pressure;altitude;pressure_sealevel;temperature
45034;BMP280;30771;47.988;-4.186;2023-12-14T00:01:41;101357.22;;;8.99
45034;BMP280;30771;47.988;-4.186;2023-12-14T00:04:08;101351.13;;;8.98
45034;BMP280;30771;47.988;-4.186;2023-12-14T00:06:35;101353.09;;;8.96
45034;BMP280;30771;47.988;-4.186;2023-12-14T00:09:01;101356.91;;;8.94
45034;BMP280;30771;47.988;-4.186;2023-12-14T00:11:28;101360.69;;;8.91
45034;BMP280;30771;47.988;-4.186;2023-12-14T00:13:55;101367.06;;;8.89
45034;BMP280;30771;47.988;-4.186;2023-12-14T00:16:21;101355.78;;;8.88
45034;BMP280;30771;47.988;-4.186;2023-12-14T00:18:48;101358.72;;;8.85
45034;BMP280;30771;47.988;-4.186;2023-12-14T00:21:15;101352.31;;;8.80
45034;BMP280;30771;47.988;-4.186;2023-12-14T00:23:41;101361.03;;;8.80
45034;BMP280;30771;47.988;-4.186;2023-12-14T00:26:08;101353.44;;;8.77
45034;BMP280;30771;47.988;-4.186;2023-12-14T00:28:35;101349.38;;;8.75
45034;BMP280;30771;47.988;-4.186;2023-12-14T00:31:02;101330.81;;;8.60
45034;BMP280;30771;47.988;-4.186;2023-12-14T00:33:29;101351.50;;;8.71
45034;BMP280;30771;47.988;-4.186;2023-12-14T00:35:56;101356.06;;;8.69
45034;BMP280;30771;47.988;-4.186;2023-12-14T00:38:23;101371.34;;;8.66
45034;BMP280;30771;47.988;-4.186;2023-12-14T00:40:49;101365.78;;;8.61
45034;BMP280;30771;47.988;-4.186;2023-12-14T00:43:16;101380.19;;;8.57
45034;BMP280;30771;47.988;-4.186;2023-12-14T00:45:42;101375.44;;;8.52
45034;BMP280;30771;47.988;-4.186;2023-12-14T00:48:09;101382.66;;;8.50
45034;BMP280;30771;47.988;-4.186;2023-12-14T00:50:36;101384.63;;;8.48
45034;BMP280;30771;47.988;-4.186;2023-12-14T00:53:02;101377.09;;;8.45
45034;BMP280;30771;47.988;-4.186;2023-12-14T00:55:29;101380.00;;;8.42
45034;BMP280;30771;47.988;-4.186;2023-12-14T00:57:56;101385.97;;;8.44
45034;BMP280;30771;47.988;-4.186;2023-12-14T01:00:22;101376.72;;;8.40
45034;BMP280;30771;47.988;-4.186;2023-12-14T01:02:49;101380.72;;;8.44
45034;BMP280;30771;47.988;-4.186;2023-12-14T01:05:16;101380.84;;;8.43
45034;BMP280;30771;47.988;-4.186;2023-12-14T01:07:43;101391.34;;;8.43
45034;BMP280;30771;47.988;-4.186;2023-12-14T01:10:09;101390.69;;;8.41
45034;BMP280;30771;47.988;-4.186;2023-12-14T01:12:36;101392.47;;;8.40
45034;BMP280;30771;47.988;-4.186;2023-12-14T01:15:04;101385.59;;;8.39
45034;BMP280;30771;47.988;-4.186;2023-12-14T01:17:31;101389.19;;;8.38
45034;BMP280;30771;47.988;-4.186;2023-12-14T01:19:57;101381.66;;;8.35
45034;BMP280;30771;47.988;-4.186;2023-12-14T01:22:24;101390.53;;;8.34
45034;BMP280;30771;47.988;-4.186;2023-12-14T01:24:51;101392.31;;;8.33
45034;BMP280;30771;47.988;-4.186;2023-12-14T01:27:17;101392.47;;;8.32
45034;BMP280;30771;47.988;-4.186;2023-12-14T01:29:44;101385.75;;;8.29
45034;BMP280;30771;47.988;-4.186;2023-12-14T01:32:10;101391.00;;;8.29
45034;BMP280;30771;47.988;-4.186;2023-12-14T01:34:37;101383.13;;;8.29
45034;BMP280;30771;47.988;-4.186;2023-12-14T01:37:04;101386.72;;;8.28
45034;BMP280;30771;47.988;-4.186;2023-12-14T01:39:30;101380.63;;;8.28
45034;BMP280;30771;47.988;-4.186;2023-12-14T01:41:57;101379.13;;;8.25
45034;BMP280;30771;47.988;-4.186;2023-12-14T01:44:24;101377.03;;;8.21
45034;BMP280;30771;47.988;-4.186;2023-12-14T01:46:50;101384.59;;;8.24
45034;BMP280;30771;47.988;-4.186;2023-12-14T01:49:17;101381.44;;;8.20
45034;BMP280;30771;47.988;-4.186;2023-12-14T01:51:43;101390.81;;;8.23
45034;BMP280;30771;47.988;-4.186;2023-12-14T01:54:10;101387.81;;;8.18
45034;BMP280;30771;47.988;-4.186;2023-12-14T01:56:37;101383.72;;;8.15
45034;BMP280;30771;47.988;-4.186;2023-12-14T01:59:03;101386.19;;;8.17
45034;BMP280;30771;47.988;-4.186;2023-12-14T02:01:54;101377.00;;;8.13
45034;BMP280;30771;47.988;-4.186;2023-12-14T02:04:21;101362.84;;;8.06
45034;BMP280;30771;47.988;-4.186;2023-12-14T02:06:47;101381.59;;;8.11
45034;BMP280;30771;47.988;-4.186;2023-12-14T02:09:14;101371.72;;;8.05
45034;BMP280;30771;47.988;-4.186;2023-12-14T02:11:41;101372.88;;;8.02
45034;BMP280;30771;47.988;-4.186;2023-12-14T02:14:11;101382.53;;;8.02
45034;BMP280;30771;47.988;-4.186;2023-12-14T02:16:38;101384.66;;;7.98
45034;BMP280;30771;47.988;-4.186;2023-12-14T02:19:05;101389.22;;;7.96
45034;BMP280;30771;47.988;-4.186;2023-12-14T02:21:32;101391.38;;;7.93
45034;BMP280;30771;47.988;-4.186;2023-12-14T02:23:59;101405.47;;;7.92
45034;BMP280;30771;47.988;-4.186;2023-12-14T02:26:25;101410.03;;;7.90
45034;BMP280;30771;47.988;-4.186;2023-12-14T02:28:52;101400.97;;;7.84
45034;BMP280;30771;47.988;-4.186;2023-12-14T02:31:19;101402.16;;;7.90
45034;BMP280;30771;47.988;-4.186;2023-12-14T02:33:46;101390.69;;;7.91
45034;BMP280;30771;47.988;-4.186;2023-12-14T02:36:12;101398.41;;;7.92
45034;BMP280;30771;47.988;-4.186;2023-12-14T02:38:39;101401.50;;;7.96
45034;BMP280;30771;47.988;-4.186;2023-12-14T02:41:06;101401.38;;;7.97
45034;BMP280;30771;47.988;-4.186;2023-12-14T02:43:33;101400.09;;;8.01
45034;BMP280;30771;47.988;-4.186;2023-12-14T02:45:59;101387.72;;;7.94
45034;BMP280;30771;47.988;-4.186;2023-12-14T02:48:26;101407.63;;;8.04
45034;BMP280;30771;47.988;-4.186;2023-12-14T02:50:53;101409.25;;;8.05
45034;BMP280;30771;47.988;-4.186;2023-12-14T02:53:19;101403.38;;;8.03
45034;BMP280;30771;47.988;-4.186;2023-12-14T02:55:46;101411.88;;;8.05
45034;BMP280;30771;47.988;-4.186;2023-12-14T02:58:13;101403.19;;;8.05
45034;BMP280;30771;47.988;-4.186;2023-12-14T03:00:40;101402.03;;;7.99
45034;BMP280;30771;47.988;-4.186;2023-12-14T03:03:06;101407.41;;;7.98
45034;BMP280;30771;47.988;-4.186;2023-12-14T03:05:33;101402.00;;;7.91
45034;BMP280;30771;47.988;-4.186;2023-12-14T03:07:59;101402.84;;;7.92
45034;BMP280;30771;47.988;-4.186;2023-12-14T03:10:26;101404.94;;;7.88
45034;BMP280;30771;47.988;-4.186;2023-12-14T03:12:53;101403.44;;;7.86
45034;BMP280;30771;47.988;-4.186;2023-12-14T03:15:19;101392.94;;;7.78
45034;BMP280;30771;47.988;-4.186;2023-12-14T03:17:46;101391.44;;;7.75
45034;BMP280;30771;47.988;-4.186;2023-12-14T03:20:13;101394.97;;;7.66
45034;BMP280;30771;47.988;-4.186;2023-12-14T03:22:40;101397.09;;;7.63
45034;BMP280;30771;47.988;-4.186;2023-12-14T03:25:08;101403.94;;;7.56
45034;BMP280;30771;47.988;-4.186;2023-12-14T03:27:35;101396.69;;;7.49
45034;BMP280;30771;47.988;-4.186;2023-12-14T03:30:02;101410.94;;;7.47
45034;BMP280;30771;47.988;-4.186;2023-12-14T03:32:29;101411.69;;;7.39
45034;BMP280;30771;47.988;-4.186;2023-12-14T03:34:55;101414.13;;;7.33
45034;BMP280;30771;47.988;-4.186;2023-12-14T03:37:22;101427.50;;;7.30
45034;BMP280;30771;47.988;-4.186;2023-12-14T03:39:49;101426.69;;;7.29
45034;BMP280;30771;47.988;-4.186;2023-12-14T03:42:15;101416.53;;;7.26
45034;BMP280;30771;47.988;-4.186;2023-12-14T03:44:42;101421.59;;;7.28
45034;BMP280;30771;47.988;-4.186;2023-12-14T03:47:08;101405.53;;;7.23
45034;BMP280;30771;47.988;-4.186;2023-12-14T03:49:38;101407.47;;;7.21
45034;BMP280;30771;47.988;-4.186;2023-12-14T03:52:05;101406.50;;;7.22
45034;BMP280;30771;47.988;-4.186;2023-12-14T03:54:32;101415.19;;;7.22
45034;BMP280;30771;47.988;-4.186;2023-12-14T03:56:58;101403.19;;;7.20
45034;BMP280;30771;47.988;-4.186;2023-12-14T03:59:25;101409.47;;;7.27
45034;BMP280;30771;47.988;-4.186;2023-12-14T04:01:51;101402.44;;;7.27
45034;BMP280;30771;47.988;-4.186;2023-12-14T04:04:18;101403.94;;;7.30
45034;BMP280;30771;47.988;-4.186;2023-12-14T04:06:45;101393.75;;;7.27
45034;BMP280;30771;47.988;-4.186;2023-12-14T04:09:11;101398.84;;;7.28
45034;BMP280;30771;47.988;-4.186;2023-12-14T04:11:38;101395.88;;;7.23
45034;BMP280;30771;47.988;-4.186;2023-12-14T04:14:05;101405.72;;;7.29
45034;BMP280;30771;47.988;-4.186;2023-12-14T04:16:31;101392.63;;;7.29
45034;BMP280;30771;47.988;-4.186;2023-12-14T04:18:58;101397.06;;;7.29
45034;BMP280;30771;47.988;-4.186;2023-12-14T04:21:25;101379.63;;;7.20
45034;BMP280;30771;47.988;-4.186;2023-12-14T04:23:51;101396.59;;;7.33
45034;BMP280;30771;47.988;-4.186;2023-12-14T04:26:18;101377.94;;;7.36
45034;BMP280;30771;47.988;-4.186;2023-12-14T04:28:45;101359.56;;;7.28
45034;BMP280;30771;47.988;-4.186;2023-12-14T04:31:11;101368.50;;;7.43
45034;BMP280;30771;47.988;-4.186;2023-12-14T04:33:38;101366.69;;;7.44
45034;BMP280;30771;47.988;-4.186;2023-12-14T04:36:05;101369.69;;;7.49
45034;BMP280;30771;47.988;-4.186;2023-12-14T04:38:32;101359.66;;;7.44
45034;BMP280;30771;47.988;-4.186;2023-12-14T04:40:58;101356.41;;;7.51
45034;BMP280;30771;47.988;-4.186;2023-12-14T04:43:25;101354.44;;;7.53
45034;BMP280;30771;47.988;-4.186;2023-12-14T04:45:51;101356.25;;;7.52
45034;BMP280;30771;47.988;-4.186;2023-12-14T04:48:18;101364.94;;;7.53
45034;BMP280;30771;47.988;-4.186;2023-12-14T04:50:45;101364.59;;;7.47
45034;BMP280;30771;47.988;-4.186;2023-12-14T04:53:11;101365.22;;;7.49
45034;BMP280;30771;47.988;-4.186;2023-12-14T04:55:38;101370.66;;;7.48
45034;BMP280;30771;47.988;-4.186;2023-12-14T04:58:05;101368.88;;;7.49
45034;BMP280;30771;47.988;-4.186;2023-12-14T05:00:31;101363.78;;;7.47
45034;BMP280;30771;47.988;-4.186;2023-12-14T05:02:58;101365.56;;;7.46
45034;BMP280;30771;47.988;-4.186;2023-12-14T05:05:25;101365.44;;;7.48
45034;BMP280;30771;47.988;-4.186;2023-12-14T05:07:52;101354.94;;;7.48
45034;BMP280;30771;47.988;-4.186;2023-12-14T05:10:18;101366.72;;;7.52
45034;BMP280;30771;47.988;-4.186;2023-12-14T05:12:45;101355.41;;;7.52
45034;BMP280;30771;47.988;-4.186;2023-12-14T05:15:12;101369.06;;;7.55
45034;BMP280;30771;47.988;-4.186;2023-12-14T05:17:38;101361.03;;;7.57
45034;BMP280;30771;47.988;-4.186;2023-12-14T05:20:08;101369.72;;;7.57
45034;BMP280;30771;47.988;-4.186;2023-12-14T05:22:35;101371.22;;;7.60
45034;BMP280;30771;47.988;-4.186;2023-12-14T05:25:02;101369.56;;;7.59
45034;BMP280;30771;47.988;-4.186;2023-12-14T05:27:29;101378.13;;;7.61
45034;BMP280;30771;47.988;-4.186;2023-12-14T05:29:56;101370.88;;;7.63
45034;BMP280;30771;47.988;-4.186;2023-12-14T05:32:22;101360.41;;;7.63
45034;BMP280;30771;47.988;-4.186;2023-12-14T05:34:49;101365.34;;;7.66
45034;BMP280;30771;47.988;-4.186;2023-12-14T05:37:16;101374.72;;;7.68
45034;BMP280;30771;47.988;-4.186;2023-12-14T05:39:42;101354.53;;;7.69
45034;BMP280;30771;47.988;-4.186;2023-12-14T05:42:09;101356.19;;;7.70
45034;BMP280;30771;47.988;-4.186;2023-12-14T05:44:35;101347.81;;;7.66
45034;BMP280;30771;47.988;-4.186;2023-12-14T05:47:02;101352.63;;;7.71
45034;BMP280;30771;47.988;-4.186;2023-12-14T05:49:29;101348.16;;;7.71
45034;BMP280;30771;47.988;-4.186;2023-12-14T05:51:58;101335.69;;;7.65
45034;BMP280;30771;47.988;-4.186;2023-12-14T05:54:25;101339.63;;;7.69
45034;BMP280;30771;47.988;-4.186;2023-12-14T05:56:52;101332.75;;;7.68
45034;BMP280;30771;47.988;-4.186;2023-12-14T05:59:18;101333.25;;;7.72
45034;BMP280;30771;47.988;-4.186;2023-12-14T06:01:45;101317.63;;;7.62
45034;BMP280;30771;47.988;-4.186;2023-12-14T06:04:12;101336.38;;;7.75
45034;BMP280;30771;47.988;-4.186;2023-12-14T06:06:39;101325.56;;;7.78
45034;BMP280;30771;47.988;-4.186;2023-12-14T06:09:05;101327.88;;;7.81
45034;BMP280;30771;47.988;-4.186;2023-12-14T06:11:32;101332.97;;;7.83
45034;BMP280;30771;47.988;-4.186;2023-12-14T06:13:59;101348.69;;;7.83
45034;BMP280;30771;47.988;-4.186;2023-12-14T06:16:25;101341.31;;;7.86
45034;BMP280;30771;47.988;-4.186;2023-12-14T06:18:52;101332.63;;;7.86
45034;BMP280;30771;47.988;-4.186;2023-12-14T06:21:19;101330.00;;;7.86
45034;BMP280;30771;47.988;-4.186;2023-12-14T06:23:45;101336.75;;;7.88
45034;BMP280;30771;47.988;-4.186;2023-12-14T06:26:16;101334.31;;;7.95
45034;BMP280;30771;47.988;-4.186;2023-12-14T06:28:43;101334.31;;;7.95
45034;BMP280;30771;47.988;-4.186;2023-12-14T06:31:13;101319.09;;;7.90
45034;BMP280;30771;47.988;-4.186;2023-12-14T06:33:41;101337.31;;;8.00
45034;BMP280;30771;47.988;-4.186;2023-12-14T06:36:08;101333.31;;;7.96
45034;BMP280;30771;47.988;-4.186;2023-12-14T06:38:38;101336.00;;;8.04
45034;BMP280;30771;47.988;-4.186;2023-12-14T06:41:05;101343.38;;;8.08
45034;BMP280;30771;47.988;-4.186;2023-12-14T06:43:31;101343.06;;;8.11
45034;BMP280;30771;47.988;-4.186;2023-12-14T06:45:58;101335.66;;;8.07
45034;BMP280;30771;47.988;-4.186;2023-12-14T06:48:25;101338.47;;;8.13
45034;BMP280;30771;47.988;-4.186;2023-12-14T06:50:52;101347.63;;;8.17
45034;BMP280;30771;47.988;-4.186;2023-12-14T06:53:18;101349.97;;;8.20
45034;BMP280;30771;47.988;-4.186;2023-12-14T06:55:45;101340.28;;;8.21
45034;BMP280;30771;47.988;-4.186;2023-12-14T06:58:12;101325.69;;;8.18
45034;BMP280;30771;47.988;-4.186;2023-12-14T07:00:38;101320.63;;;8.25
45034;BMP280;30771;47.988;-4.186;2023-12-14T07:03:05;101322.91;;;8.36
45034;BMP280;30771;47.988;-4.186;2023-12-14T07:05:32;101315.22;;;8.43
45034;BMP280;30771;47.988;-4.186;2023-12-14T07:07:58;101316.06;;;8.51
45034;BMP280;30771;47.988;-4.186;2023-12-14T07:10:25;101301.59;;;8.47
45034;BMP280;30771;47.988;-4.186;2023-12-14T07:12:52;101293.28;;;8.52
45034;BMP280;30771;47.988;-4.186;2023-12-14T07:15:18;101310.47;;;8.62
45034;BMP280;30771;47.988;-4.186;2023-12-14T07:17:45;101312.44;;;8.68
45034;BMP280;30771;47.988;-4.186;2023-12-14T07:20:12;101278.13;;;8.62
45034;BMP280;30771;47.988;-4.186;2023-12-14T07:22:39;101281.75;;;8.69
45034;BMP280;30771;47.988;-4.186;2023-12-14T07:25:06;101301.28;;;8.74
45034;BMP280;30771;47.988;-4.186;2023-12-14T07:27:33;101312.75;;;8.81
45034;BMP280;30771;47.988;-4.186;2023-12-14T07:30:00;101315.53;;;8.88
45034;BMP280;30771;47.988;-4.186;2023-12-14T07:32:26;101316.84;;;8.92
45034;BMP280;30771;47.988;-4.186;2023-12-14T07:34:55;101309.28;;;8.89
45034;BMP280;30771;47.988;-4.186;2023-12-14T07:37:22;101310.59;;;9.01
45034;BMP280;30771;47.988;-4.186;2023-12-14T07:39:48;101295.66;;;9.01
45034;BMP280;30771;47.988;-4.186;2023-12-14T07:42:15;101304.78;;;9.13
45034;BMP280;30771;47.988;-4.186;2023-12-14T07:44:42;101317.28;;;9.19
45034;BMP280;30771;47.988;-4.186;2023-12-14T07:47:08;101312.03;;;9.19
45034;BMP280;30771;47.988;-4.186;2023-12-14T07:49:35;101312.16;;;9.26
45034;BMP280;30771;47.988;-4.186;2023-12-14T07:52:02;101318.06;;;9.36
45034;BMP280;30771;47.988;-4.186;2023-12-14T07:54:29;101310.16;;;9.36
45034;BMP280;30771;47.988;-4.186;2023-12-14T07:56:55;101308.34;;;9.45
45034;BMP280;30771;47.988;-4.186;2023-12-14T07:59:22;101317.16;;;9.52
45034;BMP280;30771;47.988;-4.186;2023-12-14T08:01:49;101312.38;;;9.55
45034;BMP280;30771;47.988;-4.186;2023-12-14T08:04:16;101327.81;;;9.66
45034;BMP280;30771;47.988;-4.186;2023-12-14T08:06:42;101314.16;;;9.63
45034;BMP280;30771;47.988;-4.186;2023-12-14T08:09:09;101336.59;;;9.81
45034;BMP280;30771;47.988;-4.186;2023-12-14T08:11:36;101321.91;;;9.87
45034;BMP280;30771;47.988;-4.186;2023-12-14T08:14:02;101316.50;;;9.88
45034;BMP280;30771;47.988;-4.186;2023-12-14T08:16:30;101312.22;;;9.87
45034;BMP280;30771;47.988;-4.186;2023-12-14T08:18:56;101327.97;;;9.95
45034;BMP280;30771;47.988;-4.186;2023-12-14T08:21:23;101326.91;;;10.04
45034;BMP280;30771;47.988;-4.186;2023-12-14T08:23:50;101335.94;;;10.10
45034;BMP280;30771;47.988;-4.186;2023-12-14T08:26:17;101331.31;;;10.12
45034;BMP280;30771;47.988;-4.186;2023-12-14T08:28:44;101335.22;;;10.16
45034;BMP280;30771;47.988;-4.186;2023-12-14T08:31:10;101335.50;;;10.21
45034;BMP280;30771;47.988;-4.186;2023-12-14T08:33:37;101346.88;;;10.22
45034;BMP280;30771;47.988;-4.186;2023-12-14T08:36:04;101348.19;;;10.26
45034;BMP280;30771;47.988;-4.186;2023-12-14T08:38:31;101350.41;;;10.29
45034;BMP280;30771;47.988;-4.186;2023-12-14T08:40:58;101352.72;;;10.32
45034;BMP280;30771;47.988;-4.186;2023-12-14T08:43:25;101342.84;;;10.34
45034;BMP280;30771;47.988;-4.186;2023-12-14T08:45:51;101337.75;;;10.32
45034;BMP280;30771;47.988;-4.186;2023-12-14T08:48:18;101344.28;;;10.36
45034;BMP280;30771;47.988;-4.186;2023-12-14T08:50:45;101355.41;;;10.46
45034;BMP280;30771;47.988;-4.186;2023-12-14T08:53:12;101347.22;;;10.41
45034;BMP280;30771;47.988;-4.186;2023-12-14T08:55:38;101341.25;;;10.47
45034;BMP280;30771;47.988;-4.186;2023-12-14T08:58:05;101317.91;;;10.44
45034;BMP280;30771;47.988;-4.186;2023-12-14T09:00:32;101326.94;;;10.50
45034;BMP280;30771;47.988;-4.186;2023-12-14T09:02:58;101332.34;;;10.48
45034;BMP280;30771;47.988;-4.186;2023-12-14T09:05:25;101312.19;;;10.55
45034;BMP280;30771;47.988;-4.186;2023-12-14T09:07:52;101302.59;;;10.48
45034;BMP280;30771;47.988;-4.186;2023-12-14T09:10:19;101315.84;;;10.54
45034;BMP280;30771;47.988;-4.186;2023-12-14T09:12:46;101318.78;;;10.59
45034;BMP280;30771;47.988;-4.186;2023-12-14T09:15:12;101313.94;;;10.63
45034;BMP280;30771;47.988;-4.186;2023-12-14T09:17:39;101312.97;;;10.64
45034;BMP280;30771;47.988;-4.186;2023-12-14T09:20:07;101292.59;;;10.58
45034;BMP280;30771;47.988;-4.186;2023-12-14T09:22:34;101289.44;;;10.62
45034;BMP280;30771;47.988;-4.186;2023-12-14T09:25:00;101283.50;;;10.60
45034;BMP280;30771;47.988;-4.186;2023-12-14T09:27:27;101314.97;;;10.76
45034;BMP280;30771;47.988;-4.186;2023-12-14T09:29:54;101313.81;;;10.79
45034;BMP280;30771;47.988;-4.186;2023-12-14T09:32:20;101304.81;;;10.73
45034;BMP280;30771;47.988;-4.186;2023-12-14T09:34:47;101308.34;;;10.80
45034;BMP280;30771;47.988;-4.186;2023-12-14T09:37:14;101308.34;;;10.80
45034;BMP280;30771;47.988;-4.186;2023-12-14T09:39:40;101308.63;;;10.85
45034;BMP280;30771;47.988;-4.186;2023-12-14T09:42:07;101304.00;;;10.87
45034;BMP280;30771;47.988;-4.186;2023-12-14T09:44:35;101297.56;;;10.90
45034;BMP280;30771;47.988;-4.186;2023-12-14T09:47:04;101279.94;;;10.90
45034;BMP280;30771;47.988;-4.186;2023-12-14T09:49:32;101269.09;;;10.85
45034;BMP280;30771;47.988;-4.186;2023-12-14T09:51:59;101271.66;;;10.93
45034;BMP280;30771;47.988;-4.186;2023-12-14T09:54:27;101276.03;;;11.01
45034;BMP280;30771;47.988;-4.186;2023-12-14T09:56:53;101275.19;;;11.00
45034;BMP280;30771;47.988;-4.186;2023-12-14T09:59:21;101259.13;;;10.95
45034;BMP280;30771;47.988;-4.186;2023-12-14T10:01:48;101275.25;;;11.07
45034;BMP280;30771;47.988;-4.186;2023-12-14T10:04:16;101276.38;;;11.12
45034;BMP280;30771;47.988;-4.186;2023-12-14T10:06:46;101271.13;;;11.12
45034;BMP280;30771;47.988;-4.186;2023-12-14T10:09:14;101259.75;;;11.12
45034;BMP280;30771;47.988;-4.186;2023-12-14T10:11:42;101260.00;;;11.17
45034;BMP280;30771;47.988;-4.186;2023-12-14T10:16:44;101264.59;;;11.30
45034;BMP280;30771;47.988;-4.186;2023-12-14T10:19:11;101257.81;;;11.35
45034;BMP280;30771;47.988;-4.186;2023-12-14T10:21:38;101237.91;;;11.33
45034;BMP280;30771;47.988;-4.186;2023-12-14T10:24:05;101243.84;;;11.41
45034;BMP280;30771;47.988;-4.186;2023-12-14T10:26:32;101226.78;;;11.37
45034;BMP280;30771;47.988;-4.186;2023-12-14T10:28:58;101263.47;;;11.53
45034;BMP280;30771;47.988;-4.186;2023-12-14T10:31:25;101252.91;;;11.53
45034;BMP280;30771;47.988;-4.186;2023-12-14T10:33:53;101249.09;;;11.56
45034;BMP280;30771;47.988;-4.186;2023-12-14T10:36:21;101253.63;;;11.62
45034;BMP280;30771;47.988;-4.186;2023-12-14T10:38:55;101256.06;;;11.63
45034;BMP280;30771;47.988;-4.186;2023-12-14T10:41:23;101256.06;;;11.63
45034;BMP280;30771;47.988;-4.186;2023-12-14T10:43:53;101253.31;;;11.71
45034;BMP280;30771;47.988;-4.186;2023-12-14T10:46:23;101249.28;;;11.75
45034;BMP280;30771;47.988;-4.186;2023-12-14T10:48:51;101252.00;;;11.82
45034;BMP280;30771;47.988;-4.186;2023-12-14T10:51:20;101251.66;;;11.85
45034;BMP280;30771;47.988;-4.186;2023-12-14T10:53:47;101245.53;;;11.84
45034;BMP280;30771;47.988;-4.186;2023-12-14T10:56:16;101239.69;;;11.89
45034;BMP280;30771;47.988;-4.186;2023-12-14T10:58:56;101226.13;;;11.92
45034;BMP280;30771;47.988;-4.186;2023-12-14T11:01:24;101216.19;;;11.94
45034;BMP280;30771;47.988;-4.186;2023-12-14T11:03:54;101224.59;;;12.04
45034;BMP280;30771;47.988;-4.186;2023-12-14T11:08:52;101222.84;;;12.17
45034;BMP280;30771;47.988;-4.186;2023-12-14T11:11:19;101224.16;;;12.22
45034;BMP280;30771;47.988;-4.186;2023-12-14T11:13:52;101218.63;;;12.23
45034;BMP280;30771;47.988;-4.186;2023-12-14T11:16:23;101205.19;;;12.18
45034;BMP280;30771;47.988;-4.186;2023-12-14T11:24:35;101199.94;;;12.25
45034;BMP280;30771;47.988;-4.186;2023-12-14T11:27:06;101216.13;;;12.36
45034;BMP280;30771;47.988;-4.186;2023-12-14T11:29:36;101215.69;;;12.39
45034;BMP280;30771;47.988;-4.186;2023-12-14T11:32:03;101208.22;;;12.43
45034;BMP280;30771;47.988;-4.186;2023-12-14T11:34:29;101196.22;;;12.40
45034;BMP280;30771;47.988;-4.186;2023-12-14T11:36:56;101174.09;;;12.41
45034;BMP280;30771;47.988;-4.186;2023-12-14T11:39:23;101173.09;;;12.49
45034;BMP280;30771;47.988;-4.186;2023-12-14T11:42:00;101173.72;;;12.51
45034;BMP280;30771;47.988;-4.186;2023-12-14T11:44:27;101180.44;;;12.53
45034;BMP280;30771;47.988;-4.186;2023-12-14T11:46:54;101160.75;;;12.56
45034;BMP280;30771;47.988;-4.186;2023-12-14T11:49:23;101159.78;;;12.63
45034;BMP280;30771;47.988;-4.186;2023-12-14T11:51:54;101176.03;;;12.67
45034;BMP280;30771;47.988;-4.186;2023-12-14T11:54:21;101162.22;;;12.71
45034;BMP280;30771;47.988;-4.186;2023-12-14T11:56:51;101152.69;;;12.70
45034;BMP280;30771;47.988;-4.186;2023-12-14T11:59:19;101157.16;;;12.76
45034;BMP280;30771;47.988;-4.186;2023-12-14T12:01:56;101151.47;;;12.79
45034;BMP280;30771;47.988;-4.186;2023-12-14T12:04:23;101132.75;;;12.74
45034;BMP280;30771;47.988;-4.186;2023-12-14T12:07:00;101128.69;;;12.78
45034;BMP280;30771;47.988;-4.186;2023-12-14T12:09:38;101129.34;;;12.87
45034;BMP280;30771;47.988;-4.186;2023-12-14T12:12:06;101125.88;;;12.86
45034;BMP280;30771;47.988;-4.186;2023-12-14T12:14:34;101137.50;;;12.92
45034;BMP280;30771;47.988;-4.186;2023-12-14T12:17:01;101131.38;;;12.91
45034;BMP280;30771;47.988;-4.186;2023-12-14T12:19:27;101114.50;;;12.86
45034;BMP280;30771;47.988;-4.186;2023-12-14T12:21:54;101106.78;;;12.91
45034;BMP280;30771;47.988;-4.186;2023-12-14T12:24:21;101123.06;;;13.01
45034;BMP280;30771;47.988;-4.186;2023-12-14T12:26:54;101110.25;;;12.98
45034;BMP280;30771;47.988;-4.186;2023-12-14T12:29:21;101106.78;;;12.91
45034;BMP280;30771;47.988;-4.186;2023-12-14T12:31:48;101104.38;;;12.89
45034;BMP280;30771;47.988;-4.186;2023-12-14T12:34:15;101110.84;;;12.93
45034;BMP280;30771;47.988;-4.186;2023-12-14T12:36:42;101114.53;;;12.92
45034;BMP280;30771;47.988;-4.186;2023-12-14T12:39:09;101115.97;;;12.95
45034;BMP280;30771;47.988;-4.186;2023-12-14T12:41:35;101111.88;;;12.92
45034;BMP280;30771;47.988;-4.186;2023-12-14T12:44:03;101109.25;;;12.99
45034;BMP280;30771;47.988;-4.186;2023-12-14T12:46:30;101126.59;;;13.14
45034;BMP280;30771;47.988;-4.186;2023-12-14T12:48:56;101122.09;;;13.15
45034;BMP280;30771;47.988;-4.186;2023-12-14T12:51:23;101118.66;;;13.14
45034;BMP280;30771;47.988;-4.186;2023-12-14T12:53:50;101121.84;;;13.10
45034;BMP280;30771;47.988;-4.186;2023-12-14T12:56:20;101108.03;;;13.01
45034;BMP280;30771;47.988;-4.186;2023-12-14T12:58:46;101112.53;;;13.07
45034;BMP280;30771;47.988;-4.186;2023-12-14T13:01:13;101114.34;;;13.13
45034;BMP280;30771;47.988;-4.186;2023-12-14T13:03:40;101109.44;;;13.10
45034;BMP280;30771;47.988;-4.186;2023-12-14T13:06:06;101115.56;;;13.17
45034;BMP280;30771;47.988;-4.186;2023-12-14T13:08:33;101121.28;;;13.21
45034;BMP280;30771;47.988;-4.186;2023-12-14T13:11:00;101116.41;;;13.24
45034;BMP280;30771;47.988;-4.186;2023-12-14T13:13:40;101130.88;;;13.35
45034;BMP280;30771;47.988;-4.186;2023-12-14T13:16:07;101137.56;;;13.38
45034;BMP280;30771;47.988;-4.186;2023-12-14T13:18:34;101138.19;;;13.40
45034;BMP280;30771;47.988;-4.186;2023-12-14T13:21:00;101135.13;;;13.36
45034;BMP280;30771;47.988;-4.186;2023-12-14T13:23:27;101137.19;;;13.34
45034;BMP280;30771;47.988;-4.186;2023-12-14T13:25:54;101133.53;;;13.29
45034;BMP280;30771;47.988;-4.186;2023-12-14T13:28:21;101144.47;;;13.32
45034;BMP280;30771;47.988;-4.186;2023-12-14T13:30:47;101147.31;;;13.37
45034;BMP280;30771;47.988;-4.186;2023-12-14T13:33:14;101162.81;;;13.40
45034;BMP280;30771;47.988;-4.186;2023-12-14T13:35:41;101168.72;;;13.36
45034;BMP280;30771;47.988;-4.186;2023-12-14T13:38:08;101182.97;;;13.35
45034;BMP280;30771;47.988;-4.186;2023-12-14T13:40:35;101174.41;;;13.26
45034;BMP280;30771;47.988;-4.186;2023-12-14T13:43:01;101176.44;;;13.24
45034;BMP280;30771;47.988;-4.186;2023-12-14T13:45:33;101191.09;;;13.33
45034;BMP280;30771;47.988;-4.186;2023-12-14T13:47:59;101193.13;;;13.31
45034;BMP280;30771;47.988;-4.186;2023-12-14T13:50:26;101200.47;;;13.36
45034;BMP280;30771;47.988;-4.186;2023-12-14T13:52:53;101212.88;;;13.35
45034;BMP280;30771;47.988;-4.186;2023-12-14T13:55:21;101225.06;;;13.36
45034;BMP280;30771;47.988;-4.186;2023-12-14T13:57:47;101238.50;;;13.35
45034;BMP280;30771;47.988;-4.186;2023-12-14T14:00:15;101252.34;;;13.37
45034;BMP280;30771;47.988;-4.186;2023-12-14T14:02:42;101256.81;;;13.36